K3TOW Weather Reports


Display with metric or nautical units.
time (UTC)temp
F
wind
direction
speed
MPH
gust
MPH
rain 1hr
in
rain 24hr
in
rain mn
in
humidity
%
barometer
mb
20240228231003 58 275 2.0 12.0 0.16 1.04 1.04 95 997.0
20240228230003 58 162 1.0 4.0 0.11 0.98 0.98 95 995.4
20240228225214 58 113 1.0 4.0 0.09 0.96 0.96 95 996.0
20240228224214 58 267 2.0 8.0 0.08 0.96 0.95 95 995.7
20240228223003 58 302 1.0 4.0 0.08 0.99 0.95 95 995.9
20240228222214 58 266 2.0 5.0 0.06 1.02 0.93 95 996.1
20240228221003 58 272 2.0 14.0 0.02 1.02 0.88 95 996.0
20240228220003 58 276 1.0 10.0 0.01 1.02 0.87 95 995.7
20240228215003 58 338 1.0 6.0 0.03 1.04 0.87 95 995.3
20240228214003 58 206 1.0 4.0 0.04 1.06 0.87 95 995.2
20240228213003 58 340 1.0 9.0 0.05 1.09 0.87 95 995.5
20240228212213 58 300 2.0 5.0 0.05 1.10 0.87 95 995.9
20240228211213 58 21 1.0 2.0 0.04 1.09 0.86 95 995.1
20240228210003 58 289 1.0 8.0 0.04 1.09 0.86 95 996.3
20240228205003 58 318 1.0 5.0 0.03 1.07 0.84 95 996.5
20240228204003 58 21 1.0 4.0 0.02 1.06 0.83 95 996.3
20240228203003 58 322 1.0 3.0 0.02 1.05 0.82 95 996.4
20240228202003 58 294 1.0 6.0 0.02 1.05 0.82 95 996.2
20240228201213 58 311 1.0 6.0 0.02 1.05 0.82 95 995.8
20240228200003 58 10 1.0 4.0 0.03 1.05 0.82 95 996.2
20240228195003 58 229 0.0 2.0 0.02 1.04 0.81 95 996.7
20240228194003 59 213 0.0 1.0 0.02 1.04 0.81 95 997.0
20240228193003 59 213 0.0 2.0 0.01 1.03 0.80 94 997.0
20240228192003 59 213 0.0 1.0 0.01 1.03 0.80 94 997.3
20240228191212 59 204 0.0 3.0 0.01 1.03 0.80 93 996.8
20240228190215 59 287 3.0 10.0 0.00 1.02 0.79 93 997.1
20240228185003 59 319 2.0 7.0 0.00 1.02 0.79 94 997.1
20240228184003 58 2 2.0 10.0 0.00 1.02 0.79 94 996.3
20240228183003 58 236 2.0 7.0 0.00 1.02 0.79 94 996.2
20240228182003 58 327 1.0 10.0 0.00 1.02 0.79 94 996.8
20240228181212 58 305 2.0 9.0 0.00 1.02 0.79 94 997.2
20240228180003 58 302 2.0 11.0 0.00 1.02 0.79 94 997.4
20240228175003 58 190 2.0 6.0 0.00 1.02 0.79 95 997.1
20240228174003 57 317 2.0 6.0 0.00 1.02 0.79 95 997.2
20240228173214 57 281 1.0 8.0 0.00 1.02 0.79 94 997.6
20240228172214 57 300 2.0 6.0 0.01 1.02 0.79 95 997.9
20240228171003 57 261 1.0 8.0 0.02 1.02 0.79 95 997.8
20240228170003 57 257 2.0 5.0 0.04 1.02 0.79 95 997.4
20240228165003 57 131 1.0 8.0 0.04 1.02 0.79 96 997.4
20240228164003 57 296 2.0 6.0 0.04 1.02 0.79 95 997.8
20240228163003 57 74 2.0 4.0 0.05 1.02 0.79 95 997.7
20240228162003 57 284 1.0 4.0 0.07 1.01 0.78 95 998.8
20240228161003 57 300 1.0 11.0 0.09 1.00 0.77 95 998.9
20240228160003 57 268 2.0 7.0 0.11 0.98 0.75 96 998.8
20240228155003 56 259 3.0 9.0 0.13 0.98 0.75 96 998.8
20240228154003 56 39 1.0 6.0 0.15 0.98 0.75 96 998.9
20240228153003 55 65 1.0 6.0 0.14 0.97 0.74 96 998.7
20240228152003 55 360 1.0 4.0 0.13 0.94 0.71 96 999.7
20240228151003 55 360 1.0 4.0 0.13 0.91 0.68 96 1000.0
20240228150213 55 340 0.0 2.0 0.11 0.88 0.65 96 1000.0
20240228145213 55 340 0.0 2.0 0.10 0.86 0.63 96 1000.1
20240228144003 55 351 1.0 4.0 0.07 0.83 0.60 96 999.2
20240228143003 55 88 1.0 8.0 0.07 0.83 0.60 96 999.6
20240228142003 54 332 2.0 5.0 0.05 0.81 0.58 96 999.5
20240228141003 54 191 1.0 4.0 0.02 0.78 0.55 96 999.7
20240228140003 54 254 1.0 7.0 0.01 0.76 0.53 96 1000.0
20240228135003 54 253 1.0 7.0 0.05 0.76 0.53 96 999.9
20240228134212 54 263 2.0 6.0 0.06 0.76 0.53 96 999.8
20240228133003 54 233 1.0 5.0 0.06 0.76 0.53 97 1000.1
20240228132003 54 266 1.0 6.0 0.08 0.76 0.53 97 1000.4
20240228131003 54 268 2.0 12.0 0.11 0.76 0.53 97 1000.4
20240228130003 53 238 1.0 5.0 0.10 0.75 0.52 97 1000.1
20240228125003 53 287 1.0 3.0 0.08 0.71 0.48 97 1000.5
20240228124003 53 240 0.0 3.0 0.12 0.70 0.47 97 1000.5
20240228123214 53 241 1.0 3.0 0.13 0.70 0.47 97 1000.5
20240228122214 53 240 0.0 2.0 0.11 0.68 0.45 96 1000.6
20240228121003 54 241 0.0 2.0 0.09 0.65 0.42 96 1000.2
20240228120214 54 243 1.0 2.0 0.10 0.65 0.42 96 1000.9
20240228115003 54 261 1.0 3.0 0.09 0.63 0.40 97 999.7
20240228114003 53 300 1.0 3.0 0.05 0.58 0.35 96 1001.1
20240228113003 53 301 1.0 3.0 0.04 0.57 0.34 96 1000.1
20240228112213 53 302 2.0 6.0 0.04 0.57 0.34 97 999.3
20240228111003 53 168 1.0 4.0 0.03 0.56 0.33 97 999.9
20240228110003 53 144 1.0 3.0 0.02 0.55 0.32 97 1000.9
20240228105003 53 191 1.0 6.0 0.01 0.54 0.31 97 1001.1
20240228104213 53 233 1.0 3.0 0.00 0.53 0.30 97 1001.3
20240228103003 53 155 1.0 5.0 0.00 0.53 0.30 97 1001.4
20240228102003 53 285 2.0 6.0 0.01 0.53 0.30 97 1001.4
20240228101003 52 335 1.0 4.0 0.01 0.53 0.30 97 1001.4
20240228100003 52 97 0.0 4.0 0.01 0.53 0.30 97 1001.6
20240228095003 52 111 1.0 2.0 0.01 0.53 0.30 96 1001.7
20240228094003 53 130 1.0 3.0 0.01 0.53 0.30 96 1002.0
20240228093003 53 221 1.0 2.0 0.01 0.53 0.30 97 1002.0
20240228092003 53 221 1.0 2.0 0.00 0.52 0.29 97 1002.1
20240228091003 52 116 1.0 3.0 0.00 0.52 0.29 97 1002.3
20240228090003 52 182 1.0 4.0 0.00 0.52 0.29 97 1002.5
20240228085003 52 265 1.0 6.0 0.00 0.52 0.29 96 1002.6
20240228084003 52 151 1.0 2.0 0.01 0.52 0.29 96 1002.7
20240228083003 52 178 1.0 6.0 0.13 0.52 0.29 96 1002.8
20240228082003 52 186 0.0 1.0 0.15 0.52 0.29 96 1003.0
20240228081003 52 178 1.0 4.0 0.16 0.52 0.29 96 1003.0
20240228080003 52 167 0.0 3.0 0.19 0.52 0.29 96 1003.2
20240228075003 52 167 0.0 3.0 0.20 0.52 0.29 96 1003.3
20240228074003 52 167 0.0 4.0 0.21 0.51 0.28 96 1003.3
20240228073003 52 309 1.0 4.0 0.12 0.39 0.16 96 1003.7
20240228072003 52 54 1.0 3.0 0.11 0.37 0.14 95 1003.2
20240228071003 52 330 0.0 2.0 0.12 0.36 0.13 96 1003.3
20240228070003 52 281 1.0 2.0 0.10 0.33 0.10 96 1004.2
20240228065003 52 280 0.0 2.0 0.09 0.32 0.09 95 1003.7
20240228064003 53 280 0.0 2.0 0.07 0.30 0.07 95 1004.3
20240228063003 53 280 0.0 1.0 0.04 0.27 0.04 95 1004.7
20240228062003 53 303 1.0 3.0 0.03 0.26 0.03 95 1004.6
20240228061003 53 22 1.0 5.0 0.01 0.24 0.01 94 1004.3
20240228060003 53 88 1.0 5.0 0.00 0.23 0.00 95 1004.5
20240228055003 52 234 1.0 4.0 0.00 0.23 0.00 95 1004.6
20240228054003 52 0 0.0 0.0 0.00 0.23 0.00 95 1004.9
20240228053003 52 260 0.0 2.0 0.00 0.23 0.00 95 1004.9
20240228052003 52 259 0.0 1.0 0.00 0.23 0.00 95 1005.1
20240228051003 52 259 0.0 1.0 0.00 0.23 0.00 95 1004.9
20240228050004 52 259 0.0 1.0 0.00 0.23 0.00 95 1005.1
20240228045003 52 314 1.0 4.0 0.00 0.23 0.23 95 1005.0
20240228044003 52 341 0.0 3.0 0.00 0.23 0.23 95 1004.9
20240228043003 52 338 0.0 4.0 0.00 0.23 0.23 96 1004.9
20240228042213 51 59 0.0 2.0 0.00 0.23 0.23 96 1004.8
20240228041003 51 78 1.0 3.0 0.00 0.23 0.23 95 1005.3
20240228040003 51 91 1.0 3.0 0.00 0.23 0.23 95 1005.4
20240228035003 51 106 0.0 3.0 0.00 0.23 0.23 95 1005.7
20240228034003 51 98 0.0 3.0 0.00 0.23 0.23 96 1005.9
20240228033003 51 0 0.0 0.0 0.00 0.23 0.23 96 1006.1
20240228032212 51 0 0.0 0.0 0.00 0.23 0.23 95 1006.1
20240228031213 51 0 0.0 0.0 0.00 0.23 0.23 96 1006.0
20240228030003 50 0 0.0 0.0 0.00 0.23 0.23 95 1006.2
20240228025003 50 288 0.0 2.0 0.00 0.23 0.23 95 1006.2
20240228024003 50 289 0.0 2.0 0.00 0.23 0.23 95 1006.2
20240228023003 50 289 0.0 2.0 0.00 0.23 0.23 95 1006.2
20240228022003 51 282 1.0 3.0 0.00 0.23 0.23 95 1006.3
20240228021214 51 277 1.0 2.0 0.00 0.23 0.23 95 1006.4
20240228020003 51 305 0.0 4.0 0.00 0.23 0.23 95 1006.4
20240228015003 50 0 0.0 0.0 0.00 0.23 0.23 95 1006.7
20240228014003 50 0 0.0 0.0 0.00 0.23 0.23 95 1006.6
20240228013003 50 0 0.0 0.0 0.00 0.23 0.23 95 1006.6
20240228012214 50 0 0.0 0.0 0.00 0.23 0.23 95 1006.7
20240228011003 50 5 0.0 1.0 0.00 0.23 0.23 95 1006.5
20240228010003 50 7 1.0 3.0 0.00 0.23 0.23 95 1006.5
20240228005003 50 6 1.0 4.0 0.00 0.23 0.23 95 1006.6
20240228004213 50 358 0.0 4.0 0.00 0.23 0.23 94 1006.7
20240228003003 50 0 0.0 0.0 0.00 0.23 0.23 94 1006.9
20240228002003 50 275 1.0 3.0 0.00 0.23 0.23 94 1007.0
20240228001003 50 284 1.0 5.0 0.00 0.23 0.23 94 1006.9
20240228000003 50 0 0.0 0.0 0.00 0.23 0.23 94 1006.8
20240227235003 50 0 0.0 0.0 0.00 0.23 0.23 94 1006.8
20240227234003 50 0 0.0 0.0 0.01 0.23 0.23 94 1006.8
20240227233003 50 207 0.0 2.0 0.04 0.23 0.23 94 1006.7
20240227232003 51 207 1.0 2.0 0.10 0.23 0.23 93 1006.8